createdAt,value
2023-03-05T00:01:40.520Z,99899.38
2023-03-05T00:04:12.933Z,99899.27
2023-03-05T00:06:41.311Z,99898.34
2023-03-05T00:09:09.625Z,99891.60
2023-03-05T00:11:38.174Z,99885.55
2023-03-05T00:14:06.759Z,99882.45
2023-03-05T00:16:34.859Z,99875.04
2023-03-05T00:19:03.265Z,99870.01
2023-03-05T00:21:38.110Z,99868.34
2023-03-05T00:24:10.738Z,99870.45
2023-03-05T00:26:39.950Z,99864.80
2023-03-05T00:29:22.029Z,99859.35
2023-03-05T00:31:50.704Z,99851.90
2023-03-05T00:34:19.843Z,99845.23
2023-03-05T00:36:50.980Z,99844.46
2023-03-05T00:39:20.750Z,99842.49
2023-03-05T00:41:49.214Z,99836.77
2023-03-05T00:44:17.558Z,99834.09
2023-03-05T00:46:45.801Z,99839.52
2023-03-05T00:49:13.904Z,99839.96
2023-03-05T00:51:41.986Z,99837.20
2023-03-05T00:54:10.683Z,99829.63
2023-03-05T00:56:38.806Z,99826.88
2023-03-05T00:59:06.874Z,99823.65
2023-03-05T01:01:36.273Z,99806.42
2023-03-05T01:04:04.673Z,99798.95
2023-03-05T01:06:32.717Z,99801.02
2023-03-05T01:09:00.773Z,99801.77
2023-03-05T01:11:28.969Z,99799.02
2023-03-05T01:13:57.010Z,99798.36
2023-03-05T01:16:25.142Z,99796.70
2023-03-05T01:18:53.457Z,99789.19
2023-03-05T01:21:22.170Z,99782.02
2023-03-05T01:23:50.327Z,99787.75
2023-03-05T01:26:18.454Z,99793.57
2023-03-05T01:28:46.659Z,99797.27
2023-03-05T01:31:14.987Z,99793.05
2023-03-05T01:33:45.960Z,99790.41
2023-03-05T01:36:16.929Z,99790.08
2023-03-05T01:38:47.795Z,99798.34
2023-03-05T01:41:17.065Z,99793.20
2023-03-05T01:43:46.723Z,99791.41
2023-03-05T01:46:29.487Z,99790.14
2023-03-05T01:49:13.940Z,99785.45
2023-03-05T01:51:48.146Z,99786.00
2023-03-05T01:54:19.510Z,99783.63
2023-03-05T01:56:50.762Z,99778.02
2023-03-05T01:59:19.624Z,99774.36
2023-03-05T02:01:50.861Z,99775.55
2023-03-05T02:04:21.603Z,99764.80
2023-03-05T02:06:50.612Z,99756.26
2023-03-05T02:09:23.450Z,99754.38
2023-03-05T02:11:52.119Z,99750.70
2023-03-05T02:14:21.149Z,99749.16
2023-03-05T02:16:49.426Z,99743.43
2023-03-05T02:19:17.839Z,99739.21
2023-03-05T02:21:48.462Z,99743.95
2023-03-05T02:24:19.366Z,99744.61
2023-03-05T02:26:47.729Z,99740.46
2023-03-05T02:29:20.789Z,99736.30
2023-03-05T02:31:49.022Z,99725.72
2023-03-05T02:34:17.113Z,99725.40
2023-03-05T02:36:45.182Z,99725.13
2023-03-05T02:39:13.691Z,99720.83
2023-03-05T02:41:41.805Z,99713.63
2023-03-05T02:44:09.920Z,99710.27
2023-03-05T02:46:38.277Z,99706.06
2023-03-05T02:49:06.351Z,99705.64
2023-03-05T02:51:34.374Z,99705.13
2023-03-05T02:54:02.522Z,99703.56
2023-03-05T02:56:30.752Z,99703.00
2023-03-05T02:58:58.780Z,99699.84
2023-03-05T03:01:28.539Z,99698.42
2023-03-05T03:03:56.773Z,99691.77
2023-03-05T03:06:24.940Z,99690.89
2023-03-05T03:08:53.046Z,99690.36
2023-03-05T03:11:21.568Z,99687.94
2023-03-05T03:13:49.748Z,99685.61
2023-03-05T03:16:18.273Z,99681.71
2023-03-05T03:18:48.689Z,99677.64
2023-03-05T03:21:23.453Z,99675.92
2023-03-05T03:23:51.714Z,99672.46
2023-03-05T03:26:20.274Z,99666.66
2023-03-05T03:28:48.335Z,99668.58
2023-03-05T03:31:16.820Z,99664.31
2023-03-05T03:33:45.569Z,99653.76
2023-03-05T03:36:13.810Z,99646.03
2023-03-05T03:38:41.957Z,99643.79
2023-03-05T03:41:10.092Z,99638.41
2023-03-05T03:43:38.328Z,99632.77
2023-03-05T03:46:07.382Z,99627.44
2023-03-05T03:48:36.186Z,99624.44
2023-03-05T03:51:06.295Z,99620.13
2023-03-05T03:53:34.420Z,99615.42
2023-03-05T03:56:03.621Z,99613.67
2023-03-05T03:58:32.323Z,99611.75
2023-03-05T04:01:00.799Z,99608.48
2023-03-05T04:03:29.114Z,99604.40
2023-03-05T04:05:57.280Z,99602.05
2023-03-05T04:08:25.828Z,99596.82
2023-03-05T04:10:53.909Z,99596.04
2023-03-05T04:13:21.994Z,99593.69
2023-03-05T04:15:50.544Z,99591.14
2023-03-05T04:18:18.726Z,99588.39
2023-03-05T04:20:46.858Z,99578.57
2023-03-05T04:23:15.595Z,99576.33
2023-03-05T04:25:44.118Z,99574.05
2023-03-05T04:28:12.890Z,99569.38
2023-03-05T04:30:41.083Z,99564.59
2023-03-05T04:33:09.156Z,99559.84
2023-03-05T04:35:37.834Z,99555.80
2023-03-05T04:38:06.028Z,99548.14
2023-03-05T04:40:34.767Z,99544.19
2023-03-05T04:43:03.538Z,99541.64
2023-03-05T04:45:31.851Z,99537.89
2023-03-05T04:48:00.668Z,99536.48
2023-03-05T04:50:28.751Z,99533.38
2023-03-05T04:52:56.907Z,99526.16
2023-03-05T04:55:24.957Z,99527.10
2023-03-05T04:57:53.016Z,99524.95
2023-03-05T05:00:21.835Z,99523.02
2023-03-05T05:02:51.555Z,99523.51
2023-03-05T05:05:23.427Z,99521.70
2023-03-05T05:07:56.732Z,99523.97
2023-03-05T05:10:26.354Z,99520.88
2023-03-05T05:12:54.635Z,99518.79
2023-03-05T05:15:23.034Z,99524.13
2023-03-05T05:17:51.200Z,99524.11
2023-03-05T05:20:20.139Z,99526.44
2023-03-05T05:22:48.344Z,99526.88
2023-03-05T05:25:16.553Z,99526.52
2023-03-05T05:27:44.639Z,99530.30
2023-03-05T05:30:13.178Z,99530.81
2023-03-05T05:32:41.273Z,99528.39
2023-03-05T05:35:10.556Z,99529.76
2023-03-05T05:37:38.693Z,99526.23
2023-03-05T05:40:09.604Z,99530.70
2023-03-05T05:42:37.842Z,99526.96
2023-03-05T05:45:06.632Z,99528.84
2023-03-05T05:47:34.642Z,99528.56
2023-03-05T05:50:03.243Z,99529.54
2023-03-05T05:52:31.376Z,99530.63
2023-03-05T05:54:59.414Z,99529.36
2023-03-05T05:57:27.469Z,99528.33
2023-03-05T05:59:55.567Z,99521.74
2023-03-05T06:02:23.692Z,99521.31
2023-03-05T06:04:51.819Z,99524.21
2023-03-05T06:07:19.884Z,99520.84
2023-03-05T06:09:48.533Z,99520.10
2023-03-05T06:12:16.817Z,99515.30
2023-03-05T06:14:44.900Z,99516.59
2023-03-05T06:17:16.923Z,99516.17
2023-03-05T06:19:50.038Z,99512.68
2023-03-05T06:22:18.138Z,99508.31
2023-03-05T06:24:46.157Z,99509.88
2023-03-05T06:27:14.236Z,99501.65
2023-03-05T06:29:42.326Z,99499.00
2023-03-05T06:32:10.558Z,99496.26
2023-03-05T06:34:38.745Z,99491.70
2023-03-05T06:37:06.800Z,99489.23
2023-03-05T06:39:34.830Z,99488.45
2023-03-05T06:42:03.093Z,99483.56
2023-03-05T06:44:31.245Z,99482.59
2023-03-05T06:46:59.335Z,99482.43
2023-03-05T06:49:27.402Z,99487.84
2023-03-05T06:51:55.487Z,99491.66
2023-03-05T06:54:23.570Z,99492.40
2023-03-05T06:56:51.574Z,99497.09
2023-03-05T06:59:19.657Z,99494.69
2023-03-05T07:01:48.541Z,99497.49
2023-03-05T07:04:17.127Z,99502.61
2023-03-05T07:06:45.837Z,99503.38
2023-03-05T07:09:16.201Z,99500.88
2023-03-05T07:11:44.447Z,99501.79
2023-03-05T07:14:12.737Z,99505.60
2023-03-05T07:16:40.916Z,99508.88
2023-03-05T07:19:11.030Z,99509.74
2023-03-05T07:21:40.118Z,99511.13
2023-03-05T07:24:09.318Z,99513.80
2023-03-05T07:26:37.339Z,99515.15
2023-03-05T07:29:05.478Z,99513.38
2023-03-05T07:31:33.880Z,99509.55
2023-03-05T07:34:03.417Z,99508.38
2023-03-05T07:36:31.740Z,99513.88
2023-03-05T07:38:59.926Z,99509.84
2023-03-05T07:41:28.049Z,99511.05
2023-03-05T07:43:56.368Z,99509.69
2023-03-05T07:46:28.810Z,99511.48
2023-03-05T07:48:57.461Z,99510.52
2023-03-05T07:51:27.176Z,99505.45
2023-03-05T07:53:57.791Z,99508.98
2023-03-05T07:56:32.170Z,99506.40
2023-03-05T07:59:08.790Z,99507.58
2023-03-05T08:01:37.638Z,99507.70
2023-03-05T08:04:07.359Z,99508.73
2023-03-05T08:06:35.490Z,99510.11
2023-03-05T08:09:03.662Z,99510.34
2023-03-05T08:11:31.716Z,99511.59
2023-03-05T08:14:01.083Z,99514.20
2023-03-05T08:16:29.342Z,99515.23
2023-03-05T08:18:58.344Z,99515.59
2023-03-05T08:21:33.844Z,99516.81
2023-03-05T08:24:04.417Z,99516.31
2023-03-05T08:26:35.514Z,99517.22
2023-03-05T08:29:04.396Z,99518.51
2023-03-05T08:31:33.169Z,99515.35
2023-03-05T08:34:02.168Z,99517.45
2023-03-05T08:36:30.582Z,99518.73
2023-03-05T08:38:59.761Z,99513.02
2023-03-05T08:41:28.363Z,99514.73
2023-03-05T08:43:56.523Z,99514.56
2023-03-05T08:46:24.636Z,99514.59
2023-03-05T08:48:52.755Z,99510.02
2023-03-05T08:51:25.906Z,99515.54
2023-03-05T08:53:55.875Z,99512.66
2023-03-05T08:56:23.953Z,99512.54
2023-03-05T08:58:53.094Z,99510.34
2023-03-05T09:01:22.708Z,99508.13
2023-03-05T09:03:51.221Z,99507.86
2023-03-05T09:06:19.508Z,99505.04
2023-03-05T09:08:47.598Z,99505.72
2023-03-05T09:11:15.784Z,99505.34
2023-03-05T09:13:44.093Z,99500.65
2023-03-05T09:16:15.656Z,99502.29
2023-03-05T09:18:44.420Z,99499.27
2023-03-05T09:21:17.091Z,99498.95
2023-03-05T09:23:47.320Z,99505.06
2023-03-05T09:26:19.443Z,99502.42
2023-03-05T09:28:48.490Z,99499.93
2023-03-05T09:31:17.946Z,99500.45
2023-03-05T09:33:49.494Z,99499.75
2023-03-05T09:36:27.431Z,99495.23
2023-03-05T09:38:55.869Z,99496.05
2023-03-05T09:41:45.720Z,99497.17
2023-03-05T09:44:23.840Z,99495.99
2023-03-05T09:46:56.919Z,99494.00
2023-03-05T09:49:40.028Z,99493.60
2023-03-05T09:52:38.294Z,99490.70
2023-03-05T09:55:42.676Z,99489.60
2023-03-05T09:58:35.951Z,99479.86
2023-03-05T10:01:19.165Z,99482.46
2023-03-05T10:04:25.670Z,99481.21
2023-03-05T10:07:04.433Z,99483.80
2023-03-05T10:10:03.036Z,99476.74
2023-03-05T10:12:42.472Z,99479.06
2023-03-05T10:15:16.982Z,99478.48
2023-03-05T10:17:59.491Z,99470.36
2023-03-05T10:20:50.518Z,99469.32
2023-03-05T10:23:25.511Z,99472.41
2023-03-05T10:26:12.892Z,99474.73
2023-03-05T10:29:10.322Z,99473.61
2023-03-05T10:31:50.917Z,99477.19
2023-03-05T10:35:00.841Z,99473.83
2023-03-05T10:37:34.761Z,99488.23
2023-03-05T10:40:18.820Z,99492.95
2023-03-05T10:43:03.470Z,99489.56
2023-03-05T10:45:37.181Z,99479.88
2023-03-05T10:48:12.858Z,99469.54
2023-03-05T10:50:55.288Z,99471.01
2023-03-05T10:53:32.513Z,99473.48
2023-03-05T10:56:05.901Z,99473.90
2023-03-05T10:58:34.140Z,99470.82
2023-03-05T11:01:11.059Z,99469.63
2023-03-05T11:03:48.389Z,99468.23
2023-03-05T11:06:31.002Z,99466.73
2023-03-05T11:09:18.124Z,99461.73
2023-03-05T11:12:11.541Z,99462.70
2023-03-05T11:14:59.407Z,99457.36
2023-03-05T11:17:30.479Z,99456.89
2023-03-05T11:20:27.205Z,99458.55
2023-03-05T11:23:16.155Z,99457.79
2023-03-05T11:25:56.455Z,99455.60
2023-03-05T11:28:38.022Z,99456.48
2023-03-05T11:31:16.628Z,99455.31
2023-03-05T11:33:58.802Z,99456.00
2023-03-05T11:36:26.975Z,99464.34
2023-03-05T11:38:56.867Z,99466.00
2023-03-05T11:41:30.714Z,99469.73
2023-03-05T11:44:03.874Z,99464.80
2023-03-05T11:46:41.530Z,99461.10
2023-03-05T11:49:25.238Z,99454.38
2023-03-05T11:52:02.360Z,99451.17
2023-03-05T11:54:42.545Z,99449.83
2023-03-05T11:57:15.304Z,99448.04
2023-03-05T11:59:44.159Z,99445.54
2023-03-05T12:02:20.997Z,99444.80
2023-03-05T12:04:50.560Z,99450.58
2023-03-05T12:07:34.445Z,99451.92
2023-03-05T12:10:03.050Z,99444.14
2023-03-05T12:12:42.130Z,99442.04
2023-03-05T12:15:12.323Z,99437.86
2023-03-05T12:18:15.855Z,99437.86
2023-03-05T12:21:05.663Z,99433.95
2023-03-05T12:24:25.489Z,99432.56
2023-03-05T12:27:03.986Z,99435.13
2023-03-05T12:29:45.798Z,99428.55
2023-03-05T12:32:23.122Z,99424.73
2023-03-05T12:35:05.995Z,99422.81
2023-03-05T12:37:34.125Z,99426.45
2023-03-05T12:40:20.672Z,99421.81
2023-03-05T12:42:56.900Z,99422.17
2023-03-05T12:45:35.066Z,99423.31
2023-03-05T12:48:14.577Z,99428.19
2023-03-05T12:50:50.272Z,99432.70
2023-03-05T12:53:21.224Z,99443.03
2023-03-05T12:56:22.516Z,99446.39
2023-03-05T12:58:58.087Z,99457.05
2023-03-05T13:01:33.211Z,99452.94
2023-03-05T13:04:17.932Z,99439.97
2023-03-05T13:07:02.947Z,99416.35
2023-03-05T13:09:36.911Z,99417.81
2023-03-05T13:12:29.082Z,99412.96
2023-03-05T13:42:36.691Z,99394.99
2023-03-05T13:46:21.581Z,99405.46
2023-03-05T13:56:15.845Z,99399.39
2023-03-05T13:58:53.476Z,99398.85
2023-03-05T14:01:24.819Z,99399.52
2023-03-05T14:03:56.867Z,99393.88
2023-03-05T14:06:28.481Z,99389.16
2023-03-05T14:09:07.000Z,99390.70
2023-03-05T14:11:36.080Z,99385.08
2023-03-05T14:14:14.890Z,99385.16
2023-03-05T14:16:43.456Z,99383.19
2023-03-05T14:19:37.808Z,99380.80
2023-03-05T14:22:06.784Z,99379.96
2023-03-05T14:24:35.036Z,99379.95
2023-03-05T14:27:13.447Z,99376.22
2023-03-05T14:29:46.631Z,99377.05
2023-03-05T14:32:29.661Z,99374.17
2023-03-05T14:35:02.643Z,99376.90
2023-03-05T14:37:42.261Z,99376.43
2023-03-05T14:40:13.132Z,99374.86
2023-03-05T14:42:41.280Z,99374.33
2023-03-05T14:45:18.902Z,99374.08
2023-03-05T14:47:47.686Z,99376.69
2023-03-05T14:50:19.415Z,99377.42
2023-03-05T14:52:50.165Z,99373.48
2023-03-05T14:55:21.922Z,99373.70
2023-03-05T14:57:51.757Z,99374.09
2023-03-05T15:00:24.174Z,99376.05
2023-03-05T15:02:52.822Z,99371.77
2023-03-05T15:05:21.439Z,99370.69
2023-03-05T15:07:51.508Z,99373.01
2023-03-05T15:10:23.303Z,99365.50
2023-03-05T15:12:53.344Z,99364.00
2023-03-05T15:15:30.428Z,99363.85
2023-03-05T15:17:58.830Z,99365.85
2023-03-05T15:20:29.341Z,99364.14
2023-03-05T15:22:59.332Z,99363.90
2023-03-05T15:25:28.886Z,99361.11
2023-03-05T15:27:59.172Z,99363.31
2023-03-05T15:30:47.609Z,99364.13
2023-03-05T15:33:27.060Z,99357.50
2023-03-05T15:36:08.944Z,99360.55
2023-03-05T15:38:39.913Z,99361.72
2023-03-05T15:41:09.232Z,99363.77
2023-03-05T15:43:38.342Z,99357.06
2023-03-05T15:46:07.172Z,99359.33
2023-03-05T15:48:35.350Z,99356.75
2023-03-05T15:51:07.174Z,99356.59
2023-03-05T15:53:35.412Z,99353.98
2023-03-05T15:56:03.503Z,99354.80
2023-03-05T15:58:31.621Z,99352.66
2023-03-05T16:00:59.961Z,99347.60
2023-03-05T16:03:28.383Z,99346.52
2023-03-05T16:05:56.781Z,99350.23
2023-03-05T16:08:25.067Z,99349.08
2023-03-05T16:10:55.088Z,99352.09
2023-03-05T16:13:28.254Z,99350.95
2023-03-05T16:15:58.146Z,99345.96
2023-03-05T16:18:26.889Z,99344.66
2023-03-05T16:20:55.684Z,99344.63
2023-03-05T16:23:24.953Z,99345.91
2023-03-05T16:26:06.236Z,99350.13
2023-03-05T16:28:35.397Z,99349.67
2023-03-05T16:31:04.210Z,99351.64
2023-03-05T16:33:33.041Z,99347.60
2023-03-05T16:36:19.736Z,99351.48
2023-03-05T16:38:51.261Z,99349.32
2023-03-05T16:41:23.192Z,99350.30
2023-03-05T16:43:56.521Z,99348.02
2023-03-05T16:46:29.928Z,99349.38
2023-03-05T16:48:58.448Z,99345.38
2023-03-05T16:51:28.380Z,99344.82
2023-03-05T16:53:58.131Z,99343.23
2023-03-05T16:56:28.000Z,99345.92
2023-03-05T16:58:56.592Z,99345.83
2023-03-05T17:01:24.901Z,99348.49
2023-03-05T17:03:54.321Z,99347.35
2023-03-05T17:06:30.548Z,99353.77
2023-03-05T17:09:02.572Z,99351.42
2023-03-05T17:11:31.309Z,99350.35
2023-03-05T17:13:59.593Z,99348.83
2023-03-05T17:16:27.966Z,99347.11
2023-03-05T17:19:47.053Z,99343.63
2023-03-05T17:27:24.791Z,99348.99
2023-03-05T17:30:10.302Z,99338.86
2023-03-05T17:32:41.573Z,99345.04
2023-03-05T17:35:29.624Z,99344.27
2023-03-05T17:37:58.512Z,99346.05
2023-03-05T17:40:30.224Z,99347.64
2023-03-05T17:43:03.230Z,99348.38
2023-03-05T17:45:32.049Z,99347.36
2023-03-05T17:48:01.641Z,99346.90
2023-03-05T17:50:30.056Z,99351.12
2023-03-05T17:52:58.240Z,99347.48
2023-03-05T17:55:27.015Z,99343.79
2023-03-05T17:57:55.639Z,99346.99
2023-03-05T18:00:25.697Z,99344.52
2023-03-05T18:02:54.453Z,99346.80
2023-03-05T18:05:24.759Z,99345.96
2023-03-05T18:07:53.589Z,99346.70
2023-03-05T18:10:24.237Z,99339.32
2023-03-05T18:12:53.778Z,99344.58
2023-03-05T18:15:24.104Z,99342.59
2023-03-05T18:17:52.757Z,99339.71
2023-03-05T18:20:27.550Z,99337.15
2023-03-05T18:22:56.466Z,99342.38
2023-03-05T18:25:31.215Z,99335.06
2023-03-05T18:28:08.922Z,99335.16
2023-03-05T18:30:37.945Z,99335.69
2023-03-05T18:33:08.031Z,99333.98
2023-03-05T18:35:36.668Z,99330.94
2023-03-05T18:38:04.814Z,99331.43
2023-03-05T18:40:35.914Z,99329.19
2023-03-05T18:43:04.438Z,99323.98
2023-03-05T18:45:34.328Z,99322.37
2023-03-05T18:48:02.478Z,99323.50
2023-03-05T18:50:30.812Z,99321.27
2023-03-05T18:52:58.995Z,99319.57
2023-03-05T18:55:30.007Z,99318.73
2023-03-05T18:57:58.324Z,99316.98
2023-03-05T19:00:29.544Z,99315.11
2023-03-05T19:02:58.902Z,99321.33
2023-03-05T19:05:27.116Z,99317.11
2023-03-05T19:07:56.658Z,99318.77
2023-03-05T19:10:24.900Z,99318.60
2023-03-05T19:13:05.741Z,99316.18
2023-03-05T19:15:34.229Z,99316.85
2023-03-05T19:18:02.490Z,99314.56
2023-03-05T19:20:30.617Z,99312.77
2023-03-05T19:22:58.817Z,99315.02
2023-03-05T19:25:26.873Z,99317.16
2023-03-05T19:27:55.183Z,99315.72
2023-03-05T19:30:23.487Z,99314.12
2023-03-05T19:32:54.603Z,99314.39
2023-03-05T19:35:22.972Z,99316.01
2023-03-05T19:37:51.326Z,99310.27
2023-03-05T19:40:19.648Z,99310.39
2023-03-05T19:42:47.780Z,99307.65
2023-03-05T19:45:16.123Z,99308.55
2023-03-05T19:47:44.258Z,99311.86
2023-03-05T19:50:15.226Z,99309.09
2023-03-05T19:52:43.309Z,99307.67
2023-03-05T19:55:11.897Z,99308.06
2023-03-05T19:57:40.061Z,99306.06
2023-03-05T20:00:09.165Z,99304.93
2023-03-05T20:02:37.412Z,99301.73
2023-03-05T20:05:05.980Z,99308.68
2023-03-05T20:07:34.192Z,99306.30
2023-03-05T20:10:02.579Z,99304.17
2023-03-05T20:12:31.248Z,99303.92
2023-03-05T20:14:59.845Z,99302.90
2023-03-05T20:17:30.462Z,99302.55
2023-03-05T20:20:00.441Z,99303.74
2023-03-05T20:22:34.072Z,99304.02
2023-03-05T20:25:02.610Z,99304.33
2023-03-05T20:27:30.723Z,99301.34
2023-03-05T20:29:58.897Z,99300.02
2023-03-05T20:32:27.217Z,99300.23
2023-03-05T20:34:56.717Z,99298.91
2023-03-05T20:37:31.622Z,99297.02
2023-03-05T20:40:00.604Z,99293.64
2023-03-05T20:42:29.238Z,99290.61
2023-03-05T20:44:57.351Z,99286.94
2023-03-05T20:47:40.652Z,99289.36
2023-03-05T20:50:10.251Z,99284.09
2023-03-05T20:52:38.746Z,99287.06
2023-03-05T20:55:08.993Z,99283.44
2023-03-05T20:57:37.256Z,99278.42
2023-03-05T21:00:07.638Z,99277.34
2023-03-05T21:02:36.059Z,99272.30
2023-03-05T21:05:04.576Z,99270.18
2023-03-05T21:07:32.843Z,99265.51
2023-03-05T21:10:01.044Z,99263.72
2023-03-05T21:12:30.008Z,99263.62
2023-03-05T21:14:58.486Z,99259.73
2023-03-05T21:17:26.610Z,99256.56
2023-03-05T21:19:54.782Z,99260.33
2023-03-05T21:22:23.065Z,99257.59
2023-03-05T21:25:12.569Z,99258.56
2023-03-05T21:27:40.815Z,99254.04
2023-03-05T21:30:10.526Z,99253.79
2023-03-05T21:32:38.791Z,99252.35
2023-03-05T21:35:07.458Z,99252.30
2023-03-05T21:37:42.451Z,99247.41
2023-03-05T21:40:14.135Z,99247.48
2023-03-05T21:42:43.921Z,99244.14
2023-03-05T21:45:22.827Z,99247.59
2023-03-05T21:47:52.767Z,99246.23
2023-03-05T21:50:21.221Z,99246.15
2023-03-05T21:52:50.437Z,99244.37
2023-03-05T21:55:22.767Z,99242.11
2023-03-05T21:57:50.980Z,99242.24
2023-03-05T22:00:22.742Z,99236.86
2023-03-05T22:02:51.021Z,99237.13
2023-03-05T22:05:19.367Z,99233.11
2023-03-05T22:07:47.425Z,99228.45
2023-03-05T22:10:18.240Z,99228.81
2023-03-05T22:13:11.427Z,99224.20
2023-03-05T22:15:51.118Z,99223.90
2023-03-05T22:18:29.953Z,99222.35
2023-03-05T22:20:59.597Z,99222.48
2023-03-05T22:23:34.620Z,99217.14
2023-03-05T22:26:07.964Z,99216.92
2023-03-05T22:28:38.947Z,99218.73
2023-03-05T22:31:07.388Z,99214.66
2023-03-05T22:33:35.858Z,99216.00
2023-03-05T22:36:09.398Z,99210.48
2023-03-05T22:38:37.633Z,99208.30
2023-03-05T22:41:10.924Z,99208.84
2023-03-05T22:43:39.637Z,99209.01
2023-03-05T22:46:12.278Z,99208.83
2023-03-05T22:48:40.838Z,99204.84
2023-03-05T22:51:09.865Z,99205.94
2023-03-05T22:53:39.034Z,99201.86
2023-03-05T22:56:09.246Z,99200.09
2023-03-05T22:58:38.122Z,99196.98
2023-03-05T23:01:14.735Z,99191.09
2023-03-05T23:03:43.284Z,99193.14
2023-03-05T23:06:11.650Z,99191.76
2023-03-05T23:08:39.750Z,99191.40
2023-03-05T23:11:11.506Z,99185.38
2023-03-05T23:13:40.873Z,99185.32
2023-03-05T23:16:09.849Z,99184.05
2023-03-05T23:18:38.329Z,99183.49
2023-03-05T23:21:06.774Z,99183.21
2023-03-05T23:23:35.037Z,99179.64
2023-03-05T23:26:03.157Z,99180.39
2023-03-05T23:28:31.455Z,99178.00
2023-03-05T23:30:59.520Z,99182.45
2023-03-05T23:33:27.605Z,99178.98
2023-03-05T23:35:58.457Z,99181.79
2023-03-05T23:38:29.014Z,99178.45
2023-03-05T23:41:01.151Z,99180.98
2023-03-05T23:43:30.751Z,99181.06
2023-03-05T23:46:00.526Z,99178.23
2023-03-05T23:48:30.891Z,99178.24
2023-03-05T23:50:58.995Z,99175.16
2023-03-05T23:53:29.631Z,99177.77
2023-03-05T23:55:57.671Z,99179.08
2023-03-05T23:58:26.040Z,99175.40
